Startpagina
METAR-TAF:

METAR-TAF

Vliegvelden :

Beauvais, Frankrijk

Aéroport de Paris-Beauvais-Tillé

breedte: 49-28N, lengte: 002-07E, hoogte: 109 m

Actueel weer

Dit bericht is 10 minuten geleden gemaakt, om 11:00 UTC
Wind 13 kt uit het oosten
Temperatuur 24°C
Vochtigheid 47%
Druk 1017 hPa
Zicht: 7000 m

METAR: LFOB 261100Z AUTO 10013KT 7000 NSC 24/12 Q1017 NOSIG

Tijdstip: 13:10 (11:10 UTC)

Verwachting

Dit bericht is 6 uur en het 10 minuten geleden gemaakt, om 05:00 UTC
Verwachting geldig van 26 om 06 UTC tot 27 om 06 UTC
Wind 10 kt uit het oosten
Zicht 10 km of meer
geen wolken onder 1500 m en geen cumulonimbus
Wijzigt naar
van 27 om 00 UTC tot 27 om 04 UTC
Wind 10 kt uit het zuidzuidoosten

TAF: LFOB 260500Z 2606/2706 09010KT CAVOK BECMG 2700/2704 15010KT

Waarnemingen en weersverwachtingen van meer dan 4000 vliegvelden (METAR en TAF).

De beschikbare stations zijn de gele en rode punten op de kaart.

Ga met uw muis naar het station om de naam te zien.

Klik dan om waarnemingen en weersverwachtingen te zien.

kaart wijzigen: klik op de groene knoppen met een zwart kruis om in te zoomen, op de groene knop met een streepje om uit te zoomen of op de groene pijlen voor aangrenzende kaarten.


METAR-TAF: